Time;durP1;ratioP1;P1;durP2;ratioP2;P2;SDS_P1;SDS_P2;PMS_P1;PMS_P2;Temp;Humidity;BMP_temperature;BMP_pressure;BME280_temperature;BME280_humidity;BME280_pressure;Samples;Min_cycle;Max_cycle;Signal;HPM_P1;HPM_P2
2024/03/08 00:00:12;;;;;;;0.70;0.70;;;;;;;;;;5027751;28;20315;-80
2024/03/08 00:02:41;;;;;;;0.30;0.30;;;;;;;;;;5010174;28;20228;-80
2024/03/08 00:05:08;;;;;;;1.67;1.57;;;;;;;;;;5006058;28;20225;-80
2024/03/08 00:07:36;;;;;;;4.63;3.10;;;;;;;;;;5017683;28;20286;-79
2024/03/08 00:10:10;;;;;;;0.50;0.50;;;;;;;;;;5018410;28;20598;-79
2024/03/08 00:12:44;;;;;;;2.57;2.40;;;;;;;;;;5024270;28;20227;-80
2024/03/08 00:15:16;;;;;;;0.53;0.53;;;;;;;;;;5008116;28;20769;-79
2024/03/08 00:17:46;;;;;;;0.30;0.30;;;;;;;;;;5008149;28;20228;-79
2024/03/08 00:20:13;;;;;;;0.70;0.70;;;;;;;;;;5022353;28;20270;-79
2024/03/08 00:22:41;;;;;;;1.13;1.13;;;;;;;;;;5002200;28;20663;-79
2024/03/08 00:25:08;;;;;;;1.83;1.73;;;;;;;;;;5004291;28;20228;-79
2024/03/08 00:27:36;;;;;;;1.07;1.07;;;;;;;;;;5020848;28;20224;-79
2024/03/08 00:30:03;;;;;;;0.90;0.90;;;;;;;;;;5022588;28;20294;-80
2024/03/08 00:32:31;;;;;;;0.77;0.77;;;;;;;;;;5008494;28;20224;-79
2024/03/08 00:34:58;;;;;;;1.77;0.80;;;;;;;;;;5007614;28;20744;-80
2024/03/08 00:37:25;;;;;;;1.60;0.83;;;;;;;;;;5026219;28;20250;-80
2024/03/08 00:39:52;;;;;;;0.40;0.40;;;;;;;;;;5027387;28;20216;-80
2024/03/08 00:42:19;;;;;;;3.10;1.57;;;;;;;;;;5024912;28;20713;-79
2024/03/08 00:44:46;;;;;;;0.43;0.43;;;;;;;;;;5026858;28;20215;-79
2024/03/08 00:47:13;;;;;;;7.33;2.33;;;;;;;;;;5018040;28;20238;-79
2024/03/08 00:49:41;;;;;;;1.27;1.17;;;;;;;;;;5006375;28;20251;-79
2024/03/08 00:52:08;;;;;;;1.03;1.03;;;;;;;;;;5027008;28;20228;-78
2024/03/08 00:54:38;;;;;;;1.03;1.03;;;;;;;;;;5005519;28;20739;-79
2024/03/08 00:57:06;;;;;;;1.27;1.17;;;;;;;;;;5031378;28;20270;-79
2024/03/08 00:59:33;;;;;;;2.83;1.23;;;;;;;;;;5016654;28;20236;-80
2024/03/08 01:02:00;;;;;;;0.33;0.33;;;;;;;;;;5030567;28;20577;-79
2024/03/08 01:04:30;;;;;;;0.80;0.80;;;;;;;;;;5031683;28;20310;-80
2024/03/08 01:06:57;;;;;;;4.27;1.80;;;;;;;;;;5012531;28;20224;-79
2024/03/08 01:09:24;;;;;;;1.23;1.13;;;;;;;;;;5031852;28;20323;-80
2024/03/08 01:11:52;;;;;;;1.67;1.57;;;;;;;;;;5019528;28;20216;-79
2024/03/08 01:14:19;;;;;;;0.60;0.60;;;;;;;;;;5027019;28;20273;-79
2024/03/08 01:16:45;;;;;;;0.30;0.30;;;;;;;;;;5020409;28;20217;-79
2024/03/08 01:19:13;;;;;;;1.17;1.07;;;;;;;;;;5018781;28;20229;-79
2024/03/08 01:21:39;;;;;;;4.70;1.23;;;;;;;;;;5011907;28;20228;-79
2024/03/08 01:24:10;;;;;;;1.87;1.77;;;;;;;;;;5033363;28;20359;-79
2024/03/08 01:26:37;;;;;;;1.13;0.93;;;;;;;;;;5033424;28;20224;-79
2024/03/08 01:29:03;;;;;;;1.07;1.07;;;;;;;;;;5016218;28;20236;-79
2024/03/08 01:31:31;;;;;;;2.10;2.00;;;;;;;;;;5029595;28;20228;-79
2024/03/08 01:33:58;;;;;;;1.17;1.13;;;;;;;;;;5015580;28;20224;-79
2024/03/08 01:36:25;;;;;;;1.70;1.40;;;;;;;;;;5013252;28;20311;-79
2024/03/08 01:38:52;;;;;;;3.77;1.63;;;;;;;;;;5021619;28;20228;-79
2024/03/08 01:41:19;;;;;;;1.27;1.27;;;;;;;;;;5032416;28;20234;-79
2024/03/08 01:43:46;;;;;;;0.73;0.73;;;;;;;;;;5031631;28;20239;-79
2024/03/08 01:46:16;;;;;;;0.40;0.40;;;;;;;;;;5021686;28;20246;-78
2024/03/08 01:48:44;;;;;;;2.57;2.20;;;;;;;;;;5029035;28;20228;-79
2024/03/08 01:51:12;;;;;;;3.97;1.23;;;;;;;;;;5019936;28;20228;-78
2024/03/08 01:53:38;;;;;;;0.80;0.80;;;;;;;;;;5030803;28;20224;-78
2024/03/08 01:56:05;;;;;;;0.37;0.37;;;;;;;;;;5009778;28;20312;-79
2024/03/08 01:58:32;;;;;;;0.73;0.73;;;;;;;;;;5029811;28;20220;-79
2024/03/08 02:00:59;;;;;;;1.30;1.30;;;;;;;;;;5008250;28;20672;-78
2024/03/08 02:03:26;;;;;;;0.30;0.30;;;;;;;;;;5028268;28;20239;-79
2024/03/08 02:05:52;;;;;;;0.33;0.33;;;;;;;;;;5026228;28;20231;-79
2024/03/08 02:08:22;;;;;;;1.23;1.23;;;;;;;;;;5005551;28;20230;-78
2024/03/08 02:10:49;;;;;;;0.67;0.67;;;;;;;;;;5029409;28;20613;-78
2024/03/08 02:13:16;;;;;;;0.37;0.37;;;;;;;;;;5009814;28;20316;-79
2024/03/08 02:15:57;;;;;;;8.40;1.90;;;;;;;;;;5009543;28;20604;-79
2024/03/08 02:18:23;;;;;;;2.60;1.87;;;;;;;;;;5014621;28;20589;-79
2024/03/08 02:20:58;;;;;;;0.90;0.90;;;;;;;;;;5029562;28;20302;-79
2024/03/08 02:23:26;;;;;;;0.80;0.80;;;;;;;;;;5012353;28;20238;-79
2024/03/08 02:25:56;;;;;;;1.83;1.40;;;;;;;;;;5017506;28;20597;-79
2024/03/08 02:28:25;;;;;;;1.53;1.43;;;;;;;;;;5031059;28;20689;-79
2024/03/08 02:30:55;;;;;;;1.80;1.70;;;;;;;;;;5012864;28;20231;-79
2024/03/08 02:33:24;;;;;;;0.40;0.40;;;;;;;;;;5020897;28;20232;-79
2024/03/08 02:35:51;;;;;;;1.80;0.90;;;;;;;;;;5016965;28;20311;-79
2024/03/08 02:38:20;;;;;;;2.10;2.00;;;;;;;;;;5015493;28;20231;-79
2024/03/08 02:40:49;;;;;;;1.10;1.10;;;;;;;;;;5014309;28;20242;-79
2024/03/08 02:43:17;;;;;;;0.87;0.87;;;;;;;;;;5030200;28;20238;-79
2024/03/08 02:45:45;;;;;;;0.57;0.53;;;;;;;;;;5030432;28;20318;-79
2024/03/08 02:48:13;;;;;;;1.57;1.47;;;;;;;;;;5030892;28;20224;-79
2024/03/08 02:50:40;;;;;;;0.50;0.50;;;;;;;;;;5011000;28;20223;-79
2024/03/08 02:53:07;;;;;;;0.63;0.63;;;;;;;;;;5029575;28;20236;-78
2024/03/08 02:55:35;;;;;;;2.73;1.13;;;;;;;;;;5030673;28;20223;-79
2024/03/08 02:58:04;;;;;;;0.60;0.60;;;;;;;;;;5008782;28;20232;-78
2024/03/08 03:00:32;;;;;;;0.83;0.83;;;;;;;;;;5010890;28;20227;-79
2024/03/08 03:02:58;;;;;;;1.93;1.83;;;;;;;;;;5027646;28;20235;-79
2024/03/08 03:05:25;;;;;;;0.73;0.73;;;;;;;;;;5016836;28;20689;-79
2024/03/08 03:07:51;;;;;;;0.60;0.60;;;;;;;;;;5018572;28;20231;-78
2024/03/08 03:10:19;;;;;;;1.43;1.33;;;;;;;;;;5028123;28;20735;-79
2024/03/08 03:12:45;;;;;;;3.43;1.03;;;;;;;;;;5030010;28;20231;-78
2024/03/08 03:15:12;;;;;;;1.40;1.40;;;;;;;;;;5028747;28;20231;-78
2024/03/08 03:17:40;;;;;;;0.30;0.30;;;;;;;;;;5006220;28;20255;-79
2024/03/08 03:20:13;;;;;;;0.60;0.60;;;;;;;;;;5021181;28;20236;-78
2024/03/08 03:22:40;;;;;;;0.70;0.70;;;;;;;;;;5005080;28;20739;-79
2024/03/08 03:25:09;;;;;;;1.07;1.07;;;;;;;;;;5006878;28;20232;-78
2024/03/08 03:27:36;;;;;;;1.03;1.03;;;;;;;;;;5020542;28;20240;-78
2024/03/08 03:30:20;;;;;;;1.70;1.60;;;;;;;;;;5003126;28;20223;-79
2024/03/08 03:32:49;;;;;;;0.67;0.67;;;;;;;;;;5018709;28;20220;-80
2024/03/08 03:35:20;;;;;;;4.80;2.10;;;;;;;;;;5016632;28;20228;-79
2024/03/08 03:38:06;;;;;;;0.93;0.93;;;;;;;;;;5021265;28;20235;-79
2024/03/08 03:40:38;;;;;;;1.33;1.23;;;;;;;;;;5022604;28;20636;-79
2024/03/08 03:43:04;;;;;;;2.47;1.43;;;;;;;;;;5002910;28;20653;-79
2024/03/08 03:45:34;;;;;;;0.83;0.83;;;;;;;;;;5019221;28;20598;-79
2024/03/08 03:48:09;;;;;;;0.77;0.77;;;;;;;;;;5002340;28;20238;-79
2024/03/08 03:50:36;;;;;;;1.33;1.17;;;;;;;;;;5024751;28;20223;-79
2024/03/08 03:53:04;;;;;;;0.70;0.70;;;;;;;;;;5026724;28;20290;-79
2024/03/08 03:55:30;;;;;;;4.97;1.87;;;;;;;;;;5017771;28;20661;-79
2024/03/08 03:57:58;;;;;;;1.93;1.80;;;;;;;;;;5006026;28;20227;-79
2024/03/08 04:00:26;;;;;;;1.23;1.10;;;;;;;;;;5019167;28;20228;-78
2024/03/08 04:02:54;;;;;;;0.60;0.57;;;;;;;;;;5010756;28;20711;-79
2024/03/08 04:05:21;;;;;;;1.30;1.30;;;;;;;;;;5019385;28;20266;-79
2024/03/08 04:07:48;;;;;;;0.63;0.63;;;;;;;;;;5010483;28;20224;-79
2024/03/08 04:10:14;;;;;;;2.50;1.33;;;;;;;;;;5014247;28;20721;-79
2024/03/08 04:12:41;;;;;;;2.30;1.70;;;;;;;;;;5006726;28;20239;-79
2024/03/08 04:15:08;;;;;;;1.23;1.07;;;;;;;;;;5027820;28;20246;-79
2024/03/08 04:17:37;;;;;;;0.40;0.40;;;;;;;;;;5024022;28;20220;-79
2024/03/08 04:20:09;;;;;;;1.07;1.07;;;;;;;;;;5028624;28;20235;-79
2024/03/08 04:22:37;;;;;;;0.60;0.60;;;;;;;;;;5025979;28;20219;-79
2024/03/08 04:25:04;;;;;;;0.40;0.40;;;;;;;;;;5035317;28;20228;-78
2024/03/08 04:27:32;;;;;;;0.40;0.40;;;;;;;;;;5025839;28;20220;-78
2024/03/08 04:29:59;;;;;;;0.70;0.70;;;;;;;;;;5031598;28;20223;-79
2024/03/08 04:32:26;;;;;;;2.03;1.83;;;;;;;;;;5024664;28;20231;-79
2024/03/08 04:34:52;;;;;;;1.10;0.97;;;;;;;;;;5024564;28;20255;-78
2024/03/08 04:37:21;;;;;;;0.60;0.60;;;;;;;;;;5031493;28;20227;-79
2024/03/08 04:39:48;;;;;;;0.93;0.93;;;;;;;;;;5029606;28;20587;-79
2024/03/08 04:42:15;;;;;;;0.30;0.30;;;;;;;;;;5034847;28;20220;-79
2024/03/08 04:44:42;;;;;;;2.73;0.90;;;;;;;;;;5032252;28;20707;-78
2024/03/08 04:47:09;;;;;;;0.70;0.70;;;;;;;;;;5034845;28;20238;-79
2024/03/08 04:49:36;;;;;;;0.40;0.40;;;;;;;;;;5023234;28;20320;-78
2024/03/08 04:52:04;;;;;;;0.53;0.53;;;;;;;;;;5033726;28;20230;-79
2024/03/08 04:54:31;;;;;;;1.60;1.33;;;;;;;;;;5033887;28;20232;-78
2024/03/08 04:56:59;;;;;;;1.40;0.80;;;;;;;;;;5023267;28;20731;-79
2024/03/08 04:59:27;;;;;;;0.60;0.60;;;;;;;;;;5023426;28;20235;-78
2024/03/08 05:01:53;;;;;;;0.37;0.37;;;;;;;;;;5012468;28;20230;-79
2024/03/08 05:04:20;;;;;;;1.63;1.63;;;;;;;;;;5033954;28;20231;-79
2024/03/08 05:06:47;;;;;;;0.50;0.50;;;;;;;;;;5033851;28;20306;-79
2024/03/08 05:09:13;;;;;;;0.30;0.30;;;;;;;;;;5034521;28;20850;-79
2024/03/08 05:11:42;;;;;;;1.03;0.77;;;;;;;;;;5016973;28;20230;-78
2024/03/08 05:14:09;;;;;;;0.60;0.60;;;;;;;;;;5034517;28;20250;-78
2024/03/08 05:16:36;;;;;;;1.47;0.77;;;;;;;;;;5033544;28;20223;-79
2024/03/08 05:19:03;;;;;;;0.30;0.30;;;;;;;;;;5032995;28;20235;-78
2024/03/08 05:21:29;;;;;;;0.40;0.40;;;;;;;;;;5020799;28;20708;-79
2024/03/08 05:23:55;;;;;;;0.60;0.60;;;;;;;;;;5014711;28;20228;-79
2024/03/08 05:26:22;;;;;;;1.40;0.90;;;;;;;;;;5035059;28;20224;-79
2024/03/08 05:28:48;;;;;;;0.77;0.77;;;;;;;;;;5017185;28;20220;-78
2024/03/08 05:31:22;;;;;;;0.67;0.67;;;;;;;;;;5016867;28;20679;-80
2024/03/08 05:33:49;;;;;;;0.87;0.87;;;;;;;;;;5028961;28;20751;-79
2024/03/08 05:36:18;;;;;;;1.53;1.43;;;;;;;;;;5014487;28;20227;-79
2024/03/08 05:38:45;;;;;;;0.93;0.93;;;;;;;;;;5030946;28;20224;-79
2024/03/08 05:41:11;;;;;;;0.50;0.50;;;;;;;;;;5018270;28;20239;-78
2024/03/08 05:43:40;;;;;;;0.73;0.73;;;;;;;;;;5011977;28;20231;-79
2024/03/08 05:46:07;;;;;;;1.53;1.43;;;;;;;;;;5014086;28;20720;-79
2024/03/08 05:48:33;;;;;;;0.80;0.80;;;;;;;;;;5032554;28;20224;-78
2024/03/08 05:51:01;;;;;;;0.30;0.30;;;;;;;;;;5021470;28;20255;-79
2024/03/08 05:53:31;;;;;;;0.37;0.37;;;;;;;;;;5015656;28;20269;-79
2024/03/08 05:55:58;;;;;;;0.40;0.40;;;;;;;;;;5012551;28;20236;-79
2024/03/08 05:58:25;;;;;;;0.50;0.50;;;;;;;;;;5033330;28;20224;-79
2024/03/08 06:00:51;;;;;;;0.40;0.40;;;;;;;;;;5030799;28;20234;-81
2024/03/08 06:03:21;;;;;;;1.90;1.70;;;;;;;;;;5015335;28;20250;-78
2024/03/08 06:05:49;;;;;;;0.50;0.50;;;;;;;;;;5031708;28;20957;-79
2024/03/08 06:08:16;;;;;;;0.60;0.60;;;;;;;;;;5028556;28;20255;-79
2024/03/08 06:10:43;;;;;;;0.97;0.97;;;;;;;;;;5013959;28;20216;-79
2024/03/08 06:13:12;;;;;;;0.30;0.30;;;;;;;;;;5047688;28;20236;-79
2024/03/08 06:15:38;;;;;;;0.57;0.57;;;;;;;;;;5032549;28;20252;-78
2024/03/08 06:18:05;;;;;;;1.17;0.90;;;;;;;;;;5047897;28;20231;-79
2024/03/08 06:20:32;;;;;;;2.07;1.30;;;;;;;;;;5043728;28;20224;-79
2024/03/08 06:22:59;;;;;;;1.27;1.17;;;;;;;;;;5038782;28;20246;-79
2024/03/08 06:25:26;;;;;;;0.83;0.83;;;;;;;;;;5046685;28;20240;-81
2024/03/08 06:27:53;;;;;;;1.90;0.73;;;;;;;;;;5014674;28;20278;-79
2024/03/08 06:30:20;;;;;;;0.67;0.67;;;;;;;;;;5009226;28;20721;-79
2024/03/08 06:32:47;;;;;;;1.77;1.67;;;;;;;;;;5009092;28;20477;-78
2024/03/08 06:35:15;;;;;;;0.70;0.70;;;;;;;;;;5025359;28;20285;-79
2024/03/08 06:37:44;;;;;;;0.97;0.97;;;;;;;;;;5007861;28;20685;-79
2024/03/08 06:40:13;;;;;;;1.70;0.80;;;;;;;;;;5007732;28;20220;-79
2024/03/08 06:42:41;;;;;;;1.03;1.03;;;;;;;;;;5005652;28;20255;-79
2024/03/08 06:45:09;;;;;;;0.47;0.47;;;;;;;;;;5004893;28;20733;-79
2024/03/08 06:47:36;;;;;;;1.23;1.13;;;;;;;;;;5024557;28;20608;-78
2024/03/08 06:50:04;;;;;;;0.30;0.30;;;;;;;;;;5020728;28;20228;-79
2024/03/08 06:52:31;;;;;;;1.20;1.10;;;;;;;;;;5008864;28;20843;-78
2024/03/08 06:54:57;;;;;;;0.80;0.80;;;;;;;;;;5015809;28;20232;-79
2024/03/08 06:57:25;;;;;;;0.70;0.70;;;;;;;;;;5020057;28;20239;-79
2024/03/08 06:59:52;;;;;;;1.33;1.23;;;;;;;;;;5010227;28;20572;-81
2024/03/08 07:02:18;;;;;;;1.43;0.67;;;;;;;;;;5026671;28;20267;-79
2024/03/08 07:04:45;;;;;;;0.47;0.47;;;;;;;;;;5024832;28;20220;-79
2024/03/08 07:07:12;;;;;;;4.80;1.80;;;;;;;;;;5026122;28;20239;-79
2024/03/08 07:09:38;;;;;;;0.77;0.77;;;;;;;;;;5009055;28;20779;-79
2024/03/08 07:12:06;;;;;;;0.30;0.30;;;;;;;;;;5028991;28;20735;-79
2024/03/08 07:14:32;;;;;;;0.47;0.47;;;;;;;;;;5010142;28;20592;-79
2024/03/08 07:16:59;;;;;;;0.40;0.40;;;;;;;;;;5012437;28;20281;-80
2024/03/08 07:19:28;;;;;;;1.03;0.87;;;;;;;;;;5014516;28;20231;-79
2024/03/08 07:21:55;;;;;;;0.63;0.63;;;;;;;;;;5032111;28;20224;-79
2024/03/08 07:24:37;;;;;;;1.50;1.40;;;;;;;;;;5031515;28;20259;-78
2024/03/08 07:27:05;;;;;;;0.30;0.30;;;;;;;;;;5031308;28;20236;-79
2024/03/08 07:29:33;;;;;;;3.10;1.60;;;;;;;;;;5027196;28;20242;-79
2024/03/08 07:34:31;;;;;;;0.50;0.50;;;;;;;;;;5029583;28;20237;-78
2024/03/08 07:36:59;;;;;;;1.00;0.97;;;;;;;;;;5008650;28;20232;-78
2024/03/08 07:39:26;;;;;;;1.17;1.17;;;;;;;;;;5011367;28;20310;-79
2024/03/08 07:41:52;;;;;;;0.40;0.40;;;;;;;;;;5010961;28;20228;-78
2024/03/08 07:44:19;;;;;;;2.47;1.47;;;;;;;;;;5010387;28;20234;-79
2024/03/08 07:46:46;;;;;;;0.97;0.90;;;;;;;;;;5008695;28;20220;-79
2024/03/08 07:49:13;;;;;;;0.50;0.50;;;;;;;;;;5011498;28;20242;-79
2024/03/08 07:51:40;;;;;;;1.33;1.33;;;;;;;;;;5029270;28;20251;-79
2024/03/08 07:54:09;;;;;;;0.50;0.50;;;;;;;;;;5019213;28;20228;-78
2024/03/08 07:56:36;;;;;;;1.03;1.03;;;;;;;;;;5010688;28;20223;-78
2024/03/08 07:59:04;;;;;;;0.57;0.57;;;;;;;;;;5018267;28;20259;-78
2024/03/08 08:01:30;;;;;;;0.30;0.30;;;;;;;;;;5011869;28;20231;-78
2024/03/08 08:03:57;;;;;;;0.70;0.70;;;;;;;;;;5011223;28;20301;-80
2024/03/08 08:06:25;;;;;;;0.60;0.60;;;;;;;;;;5011935;28;20242;-79
2024/03/08 08:08:51;;;;;;;0.53;0.53;;;;;;;;;;5026927;28;20239;-79
2024/03/08 08:11:18;;;;;;;0.93;0.93;;;;;;;;;;5029578;28;20240;-78
2024/03/08 08:13:45;;;;;;;0.40;0.40;;;;;;;;;;5030210;28;20794;-79
2024/03/08 08:16:13;;;;;;;0.70;0.70;;;;;;;;;;5012214;28;20743;-80
2024/03/08 08:18:39;;;;;;;0.40;0.40;;;;;;;;;;5027695;28;20228;-79
2024/03/08 08:21:07;;;;;;;0.30;0.30;;;;;;;;;;5017212;28;20231;-79
2024/03/08 08:23:34;;;;;;;0.30;0.30;;;;;;;;;;5008664;28;20800;-79
2024/03/08 08:26:03;;;;;;;0.73;0.73;;;;;;;;;;5004731;28;20608;-79
2024/03/08 08:28:31;;;;;;;0.57;0.57;;;;;;;;;;5025881;28;20231;-79
2024/03/08 08:30:59;;;;;;;1.43;0.80;;;;;;;;;;5009805;28;20638;-80
2024/03/08 08:33:25;;;;;;;0.67;0.67;;;;;;;;;;5011645;28;20230;-80
2024/03/08 08:35:53;;;;;;;1.03;1.03;;;;;;;;;;5023945;28;20243;-81
2024/03/08 08:38:20;;;;;;;1.00;1.00;;;;;;;;;;5006537;28;20228;-79
2024/03/08 08:40:47;;;;;;;1.47;1.47;;;;;;;;;;5011268;28;20306;-80
2024/03/08 08:43:14;;;;;;;0.43;0.43;;;;;;;;;;5008185;28;20285;-80
2024/03/08 08:45:40;;;;;;;0.30;0.30;;;;;;;;;;5025816;28;20301;-81
2024/03/08 08:48:06;;;;;;;0.60;0.60;;;;;;;;;;5006641;28;20328;-80
2024/03/08 08:50:33;;;;;;;0.30;0.30;;;;;;;;;;5029166;28;20252;-80
2024/03/08 08:53:00;;;;;;;0.30;0.30;;;;;;;;;;5011434;28;20307;-80
2024/03/08 08:55:26;;;;;;;0.23;0.23;;;;;;;;;;5027948;28;20310;-80
2024/03/08 08:57:53;;;;;;;0.70;0.70;;;;;;;;;;5012645;28;20252;-80
2024/03/08 09:00:21;;;;;;;0.40;0.40;;;;;;;;;;5010851;28;20335;-80
2024/03/08 09:02:51;;;;;;;0.30;0.30;;;;;;;;;;5010070;28;20223;-80
2024/03/08 09:05:17;;;;;;;0.30;0.30;;;;;;;;;;5009784;28;20235;-80
2024/03/08 09:07:44;;;;;;;0.57;0.57;;;;;;;;;;5013470;28;20252;-81
2024/03/08 09:10:12;;;;;;;1.00;1.00;;;;;;;;;;5030138;28;20220;-80
2024/03/08 09:12:41;;;;;;;0.40;0.40;;;;;;;;;;5020092;28;20224;-81
2024/03/08 09:15:09;;;;;;;3.40;0.77;;;;;;;;;;5028090;28;20220;-80
2024/03/08 09:17:40;;;;;;;0.40;0.40;;;;;;;;;;5030179;28;20228;-82
2024/03/08 09:20:17;;;;;;;0.40;0.40;;;;;;;;;;5029407;28;20247;-81
2024/03/08 09:22:44;;;;;;;0.63;0.63;;;;;;;;;;5009561;28;20315;-81
2024/03/08 09:25:11;;;;;;;0.30;0.30;;;;;;;;;;5009917;28;20780;-80
2024/03/08 09:27:39;;;;;;;0.30;0.30;;;;;;;;;;5027189;28;20697;-81
2024/03/08 09:30:06;;;;;;;0.50;0.50;;;;;;;;;;5010122;28;20602;-81
2024/03/08 09:32:33;;;;;;;0.93;0.93;;;;;;;;;;5031132;28;20736;-81
2024/03/08 09:35:00;;;;;;;0.30;0.30;;;;;;;;;;5029974;28;20921;-81
2024/03/08 09:37:28;;;;;;;0.40;0.40;;;;;;;;;;5018807;28;20295;-81
2024/03/08 09:39:54;;;;;;;0.30;0.30;;;;;;;;;;5026543;28;20294;-82
2024/03/08 09:42:20;;;;;;;0.83;0.83;;;;;;;;;;5011262;28;20227;-81
2024/03/08 09:44:48;;;;;;;0.30;0.30;;;;;;;;;;5022899;28;20227;-82
2024/03/08 09:47:14;;;;;;;0.30;0.30;;;;;;;;;;5007081;28;20256;-83
2024/03/08 09:49:43;;;;;;;2.47;2.37;;;;;;;;;;5007220;28;20248;-84
2024/03/08 09:52:10;;;;;;;4.30;1.60;;;;;;;;;;5023041;28;20263;-81
2024/03/08 09:54:37;;;;;;;1.20;1.10;;;;;;;;;;5026072;28;20224;-84
2024/03/08 09:57:09;;;;;;;0.67;0.53;;;;;;;;;;5027105;28;20239;-83
2024/03/08 10:02:04;;;;;;;3.00;0.97;;;;;;;;;;5030966;28;20734;-81
2024/03/08 10:04:32;;;;;;;1.27;1.17;;;;;;;;;;5021294;28;20791;-81
2024/03/08 10:07:01;;;;;;;0.40;0.40;;;;;;;;;;5029773;28;20254;-81
2024/03/08 10:09:28;;;;;;;0.87;0.87;;;;;;;;;;5013058;28;20236;-83
2024/03/08 10:11:58;;;;;;;0.30;0.30;;;;;;;;;;5013671;28;20235;-81
2024/03/08 10:14:28;;;;;;;0.30;0.30;;;;;;;;;;5030708;28;20262;-80
2024/03/08 10:16:59;;;;;;;1.00;1.00;;;;;;;;;;5030476;28;20227;-81
2024/03/08 10:19:29;;;;;;;0.97;0.97;;;;;;;;;;5030120;28;20724;-80
2024/03/08 10:21:58;;;;;;;2.33;2.13;;;;;;;;;;5013462;28;20705;-81
2024/03/08 10:24:25;;;;;;;0.37;0.37;;;;;;;;;;5013011;28;20717;-80
2024/03/08 10:26:54;;;;;;;0.30;0.30;;;;;;;;;;5029958;28;20778;-81
2024/03/08 10:29:20;;;;;;;0.93;0.93;;;;;;;;;;5013019;28;20621;-81
2024/03/08 10:31:47;;;;;;;0.93;0.93;;;;;;;;;;5031068;28;20228;-82
2024/03/08 10:34:13;;;;;;;0.40;0.40;;;;;;;;;;5030639;28;20224;-80
2024/03/08 10:36:41;;;;;;;0.30;0.30;;;;;;;;;;5029248;28;20314;-83
2024/03/08 10:39:20;;;;;;;2.30;2.10;;;;;;;;;;5030874;28;20239;-80
2024/03/08 10:41:53;;;;;;;5.20;1.30;;;;;;;;;;5014091;28;20238;-81
2024/03/08 10:44:48;;;;;;;1.10;1.10;;;;;;;;;;5011484;28;20724;-81
2024/03/08 10:47:23;;;;;;;0.70;0.70;;;;;;;;;;5027788;28;20613;-83
2024/03/08 10:49:49;;;;;;;0.90;0.90;;;;;;;;;;5031315;28;20224;-82
2024/03/08 10:52:17;;;;;;;0.80;0.80;;;;;;;;;;5011655;28;20224;-83
2024/03/08 10:54:45;;;;;;;0.33;0.33;;;;;;;;;;5028045;28;20220;-85
2024/03/08 10:57:13;;;;;;;0.43;0.43;;;;;;;;;;5029118;28;20240;-83
2024/03/08 10:59:42;;;;;;;0.30;0.30;;;;;;;;;;5012389;28;20217;-82
2024/03/08 11:02:12;;;;;;;0.40;0.40;;;;;;;;;;5030154;28;20228;-82
2024/03/08 11:04:45;;;;;;;0.40;0.40;;;;;;;;;;5028810;28;20619;-83
2024/03/08 11:07:17;;;;;;;0.47;0.47;;;;;;;;;;5011733;28;20235;-83
2024/03/08 11:09:45;;;;;;;0.50;0.50;;;;;;;;;;5028126;28;20232;-82
2024/03/08 11:12:34;;;;;;;0.63;0.63;;;;;;;;;;5011700;28;20243;-81
2024/03/08 11:15:11;;;;;;;0.43;0.43;;;;;;;;;;5011977;28;20231;-81
2024/03/08 11:17:38;;;;;;;1.73;1.63;;;;;;;;;;5029374;28;20599;-82
2024/03/08 11:20:17;;;;;;;0.53;0.53;;;;;;;;;;5029614;28;20220;-82
2024/03/08 11:22:52;;;;;;;0.40;0.40;;;;;;;;;;5028496;28;20231;-82
2024/03/08 11:25:46;;;;;;;0.70;0.50;;;;;;;;;;5011326;28;20235;-81
2024/03/08 11:28:18;;;;;;;0.67;0.57;;;;;;;;;;5008551;28;20236;-79
2024/03/08 11:31:01;;;;;;;0.30;0.30;;;;;;;;;;5026627;28;20634;-79
2024/03/08 11:33:29;;;;;;;0.50;0.50;;;;;;;;;;5011247;28;20251;-80
2024/03/08 11:36:16;;;;;;;0.50;0.50;;;;;;;;;;5028030;28;20297;-79
2024/03/08 11:38:44;;;;;;;0.70;0.70;;;;;;;;;;5026807;28;20604;-79
2024/03/08 11:41:14;;;;;;;0.90;0.90;;;;;;;;;;5010938;28;20275;-80
2024/03/08 11:43:44;;;;;;;2.00;1.83;;;;;;;;;;5028317;28;20701;-79
2024/03/08 11:46:12;;;;;;;1.77;1.63;;;;;;;;;;5028332;28;20591;-79
2024/03/08 11:48:43;;;;;;;0.80;0.80;;;;;;;;;;5010330;28;20220;-79
2024/03/08 11:51:14;;;;;;;1.23;1.23;;;;;;;;;;5011229;28;20242;-78
2024/03/08 11:53:42;;;;;;;0.83;0.83;;;;;;;;;;5028894;28;20232;-81
2024/03/08 11:56:14;;;;;;;0.50;0.50;;;;;;;;;;5014080;28;20317;-80
2024/03/08 11:58:41;;;;;;;1.47;1.47;;;;;;;;;;5009117;28;20323;-79
2024/03/08 12:01:12;;;;;;;1.37;1.27;;;;;;;;;;5011813;28;20227;-79
2024/03/08 12:03:42;;;;;;;4.10;1.07;;;;;;;;;;5023077;28;20253;-79
2024/03/08 12:06:13;;;;;;;0.80;0.80;;;;;;;;;;5026187;28;20224;-79
2024/03/08 12:08:40;;;;;;;4.03;0.90;;;;;;;;;;5024463;28;20228;-80
2024/03/08 12:11:06;;;;;;;1.33;1.23;;;;;;;;;;5024458;28;20240;-80
2024/03/08 12:13:34;;;;;;;1.03;1.03;;;;;;;;;;5002507;28;20815;-79
2024/03/08 12:16:06;;;;;;;3.13;1.93;;;;;;;;;;5021739;28;20223;-78
2024/03/08 12:18:37;;;;;;;1.30;0.98;;;;;;;;;;5005369;28;20236;-78
2024/03/08 12:21:10;;;;;;;0.70;0.70;;;;;;;;;;5021116;28;20697;-78
2024/03/08 12:23:39;;;;;;;1.77;1.67;;;;;;;;;;5024397;28;20232;-79
2024/03/08 12:26:23;;;;;;;4.33;1.60;;;;;;;;;;5018793;28;20700;-81
2024/03/08 12:28:50;;;;;;;1.40;1.30;;;;;;;;;;5021052;28;20315;-79
2024/03/08 12:31:17;;;;;;;0.60;0.60;;;;;;;;;;5023406;28;20232;-80
2024/03/08 12:33:56;;;;;;;1.60;1.50;;;;;;;;;;5008337;28;20223;-78
2024/03/08 12:36:23;;;;;;;0.50;0.50;;;;;;;;;;5023719;28;20228;-79
2024/03/08 12:38:50;;;;;;;2.50;2.30;;;;;;;;;;5021879;28;20232;-79
2024/03/08 12:41:18;;;;;;;1.17;1.17;;;;;;;;;;5013829;28;20223;-79
2024/03/08 12:43:51;;;;;;;0.68;0.68;;;;;;;;;;5008905;28;20315;-79
2024/03/08 12:46:22;;;;;;;2.22;2.03;;;;;;;;;;5007201;28;20223;-79
2024/03/08 12:48:48;;;;;;;1.25;1.20;;;;;;;;;;5012525;28;20285;-79
2024/03/08 12:51:18;;;;;;;0.88;0.88;;;;;;;;;;5013883;28;20232;-79
2024/03/08 12:53:45;;;;;;;0.93;0.93;;;;;;;;;;5007480;28;20226;-79
2024/03/08 12:56:12;;;;;;;0.88;0.88;;;;;;;;;;5025133;28;20236;-77
2024/03/08 12:58:39;;;;;;;0.90;0.90;;;;;;;;;;5009352;28;20322;-77
2024/03/08 13:01:07;;;;;;;0.82;0.82;;;;;;;;;;5028295;28;20240;-77
2024/03/08 13:03:35;;;;;;;1.50;1.42;;;;;;;;;;5030075;28;20594;-76
2024/03/08 13:06:08;;;;;;;1.02;1.02;;;;;;;;;;5019446;28;20740;-76
2024/03/08 13:08:36;;;;;;;1.13;1.08;;;;;;;;;;5031496;28;20228;-76
2024/03/08 13:11:03;;;;;;;3.03;1.58;;;;;;;;;;5025274;28;20239;-76
2024/03/08 13:13:29;;;;;;;0.75;0.75;;;;;;;;;;5012497;28;20223;-77
2024/03/08 13:15:56;;;;;;;0.90;0.90;;;;;;;;;;5029673;28;20228;-77
2024/03/08 13:18:23;;;;;;;1.20;1.20;;;;;;;;;;5013320;28;20228;-77
2024/03/08 13:20:51;;;;;;;0.57;0.57;;;;;;;;;;5021115;28;20216;-77
2024/03/08 13:23:18;;;;;;;1.58;1.00;;;;;;;;;;5030769;28;20236;-77
2024/03/08 13:25:47;;;;;;;0.52;0.52;;;;;;;;;;5030676;28;20589;-77
2024/03/08 13:28:15;;;;;;;1.70;1.60;;;;;;;;;;5030656;28;20224;-78
2024/03/08 13:30:43;;;;;;;1.63;1.52;;;;;;;;;;5021132;28;20331;-77
2024/03/08 13:33:11;;;;;;;1.10;1.10;;;;;;;;;;5013334;28;20238;-77
2024/03/08 13:35:37;;;;;;;2.25;2.05;;;;;;;;;;5013033;28;20313;-77
2024/03/08 13:38:05;;;;;;;2.00;1.88;;;;;;;;;;5013292;28;20323;-76
2024/03/08 13:40:31;;;;;;;1.27;1.27;;;;;;;;;;5028560;28;20231;-77
2024/03/08 13:43:00;;;;;;;1.92;1.83;;;;;;;;;;5010620;28;20231;-77
2024/03/08 13:45:27;;;;;;;3.92;1.58;;;;;;;;;;5030443;28;20289;-76
2024/03/08 13:47:53;;;;;;;1.08;1.00;;;;;;;;;;5020048;28;20224;-78
2024/03/08 13:50:25;;;;;;;1.60;1.33;;;;;;;;;;5013176;28;20254;-77
2024/03/08 13:52:53;;;;;;;0.88;0.88;;;;;;;;;;5010423;28;20224;-77
2024/03/08 13:55:23;;;;;;;0.88;0.88;;;;;;;;;;5030825;28;20696;-78
2024/03/08 13:57:53;;;;;;;0.63;0.63;;;;;;;;;;5013171;28;20235;-78
2024/03/08 14:00:24;;;;;;;0.88;0.88;;;;;;;;;;5028938;28;20228;-77
2024/03/08 14:02:51;;;;;;;0.55;0.55;;;;;;;;;;5029518;28;20234;-76
2024/03/08 14:05:19;;;;;;;1.45;1.38;;;;;;;;;;5020565;28;20234;-76
2024/03/08 14:07:48;;;;;;;1.52;1.38;;;;;;;;;;5028356;28;20239;-76
2024/03/08 14:10:15;;;;;;;1.00;1.00;;;;;;;;;;5009808;28;20720;-77
2024/03/08 14:12:44;;;;;;;1.73;1.42;;;;;;;;;;5027141;28;20228;-77
2024/03/08 14:15:12;;;;;;;1.30;1.27;;;;;;;;;;5024635;28;20229;-77
2024/03/08 14:17:39;;;;;;;1.40;1.15;;;;;;;;;;5011681;28;20282;-76
2024/03/08 14:20:06;;;;;;;0.70;0.70;;;;;;;;;;5017823;28;20255;-76
2024/03/08 14:22:33;;;;;;;1.30;1.20;;;;;;;;;;5019371;28;20224;-77
2024/03/08 14:25:00;;;;;;;0.52;0.52;;;;;;;;;;5023637;28;20701;-77
2024/03/08 14:27:32;;;;;;;0.77;0.70;;;;;;;;;;5028832;28;20251;-77
2024/03/08 14:29:59;;;;;;;0.47;0.47;;;;;;;;;;5029703;28;20244;-76
2024/03/08 14:32:26;;;;;;;1.02;1.02;;;;;;;;;;5029785;28;20238;-76
2024/03/08 14:34:52;;;;;;;0.80;0.80;;;;;;;;;;5011671;28;20232;-77
2024/03/08 14:37:23;;;;;;;1.17;1.13;;;;;;;;;;5030072;28;20319;-77
2024/03/08 14:39:52;;;;;;;1.48;1.40;;;;;;;;;;5029703;28;20804;-77
2024/03/08 14:42:19;;;;;;;1.00;1.00;;;;;;;;;;5026721;28;20224;-78
2024/03/08 14:44:50;;;;;;;0.57;0.57;;;;;;;;;;5026063;28;20231;-77
2024/03/08 14:47:17;;;;;;;1.20;0.85;;;;;;;;;;5010323;28;20239;-77
2024/03/08 14:49:43;;;;;;;1.15;1.15;;;;;;;;;;5029537;28;20224;-77
2024/03/08 14:52:27;;;;;;;2.40;1.42;;;;;;;;;;5012382;28;20246;-75
2024/03/08 14:54:55;;;;;;;0.30;0.30;;;;;;;;;;5009626;28;20293;-75